sensor_id;sensor_type;location;lat;lon;timestamp;temperature;humidity
41922;DHT22;27609;51.002;5.354;2023-04-02T00:00:00;9.30;99.90
41922;DHT22;27609;51.002;5.354;2023-04-02T00:02:31;9.30;99.90
41922;DHT22;27609;51.002;5.354;2023-04-02T00:07:43;9.10;99.90
41922;DHT22;27609;51.002;5.354;2023-04-02T00:15:36;9.00;99.90
41922;DHT22;27609;51.002;5.354;2023-04-02T00:18:02;9.00;99.90
41922;DHT22;27609;51.002;5.354;2023-04-02T00:20:32;8.90;99.90
41922;DHT22;27609;51.002;5.354;2023-04-02T00:22:59;8.90;99.90
41922;DHT22;27609;51.002;5.354;2023-04-02T00:25:27;8.80;99.90
41922;DHT22;27609;51.002;5.354;2023-04-02T00:27:55;8.80;99.90
41922;DHT22;27609;51.002;5.354;2023-04-02T00:30:21;8.80;99.90
41922;DHT22;27609;51.002;5.354;2023-04-02T00:32:47;8.70;99.90
41922;DHT22;27609;51.002;5.354;2023-04-02T00:35:24;8.70;99.90
41922;DHT22;27609;51.002;5.354;2023-04-02T00:37:51;8.80;99.90
41922;DHT22;27609;51.002;5.354;2023-04-02T00:40:29;8.80;99.90
41922;DHT22;27609;51.002;5.354;2023-04-02T00:42:58;8.70;99.90
41922;DHT22;27609;51.002;5.354;2023-04-02T00:45:30;8.70;99.90
41922;DHT22;27609;51.002;5.354;2023-04-02T00:47:59;8.50;99.90
41922;DHT22;27609;51.002;5.354;2023-04-02T00:50:40;8.60;99.90
41922;DHT22;27609;51.002;5.354;2023-04-02T00:53:21;8.60;99.90
41922;DHT22;27609;51.002;5.354;2023-04-02T00:55:47;8.60;99.90
41922;DHT22;27609;51.002;5.354;2023-04-02T00:58:25;8.50;99.90
41922;DHT22;27609;51.002;5.354;2023-04-02T01:00:52;8.50;99.90
41922;DHT22;27609;51.002;5.354;2023-04-02T01:03:24;8.60;99.90
41922;DHT22;27609;51.002;5.354;2023-04-02T01:13:50;8.30;99.90
41922;DHT22;27609;51.002;5.354;2023-04-02T01:22:07;8.30;99.90
41922;DHT22;27609;51.002;5.354;2023-04-02T01:24:34;8.30;99.90
41922;DHT22;27609;51.002;5.354;2023-04-02T01:27:07;8.20;99.90
41922;DHT22;27609;51.002;5.354;2023-04-02T01:29:39;8.10;99.90
41922;DHT22;27609;51.002;5.354;2023-04-02T01:32:16;8.00;99.90
41922;DHT22;27609;51.002;5.354;2023-04-02T01:34:45;8.10;99.90
41922;DHT22;27609;51.002;5.354;2023-04-02T01:45:26;8.00;99.90
41922;DHT22;27609;51.002;5.354;2023-04-02T01:47:53;8.00;99.90
41922;DHT22;27609;51.002;5.354;2023-04-02T01:52:47;8.00;99.90
41922;DHT22;27609;51.002;5.354;2023-04-02T01:55:16;7.90;99.90
41922;DHT22;27609;51.002;5.354;2023-04-02T01:57:47;8.00;99.90
41922;DHT22;27609;51.002;5.354;2023-04-02T02:00:15;8.00;99.90
41922;DHT22;27609;51.002;5.354;2023-04-02T02:02:42;8.00;99.90
41922;DHT22;27609;51.002;5.354;2023-04-02T02:05:16;7.90;99.90
41922;DHT22;27609;51.002;5.354;2023-04-02T02:07:43;7.90;99.90
41922;DHT22;27609;51.002;5.354;2023-04-02T02:10:15;7.90;99.90
41922;DHT22;27609;51.002;5.354;2023-04-02T02:12:45;7.80;99.90
41922;DHT22;27609;51.002;5.354;2023-04-02T02:15:16;7.90;99.90
41922;DHT22;27609;51.002;5.354;2023-04-02T02:17:42;7.90;99.90
41922;DHT22;27609;51.002;5.354;2023-04-02T02:20:09;8.00;99.90
41922;DHT22;27609;51.002;5.354;2023-04-02T02:22:47;7.90;99.90
41922;DHT22;27609;51.002;5.354;2023-04-02T02:25:17;7.90;99.90
41922;DHT22;27609;51.002;5.354;2023-04-02T02:27:52;7.90;99.90
41922;DHT22;27609;51.002;5.354;2023-04-02T02:30:41;8.00;99.90
41922;DHT22;27609;51.002;5.354;2023-04-02T02:33:27;8.00;99.90
41922;DHT22;27609;51.002;5.354;2023-04-02T02:36:04;7.90;99.90
41922;DHT22;27609;51.002;5.354;2023-04-02T02:38:52;8.00;99.90
41922;DHT22;27609;51.002;5.354;2023-04-02T02:41:39;7.90;99.90
41922;DHT22;27609;51.002;5.354;2023-04-02T02:46:48;7.80;99.90
41922;DHT22;27609;51.002;5.354;2023-04-02T02:49:19;7.80;99.90
41922;DHT22;27609;51.002;5.354;2023-04-02T02:51:51;7.70;99.90
41922;DHT22;27609;51.002;5.354;2023-04-02T02:54:18;7.70;99.90
41922;DHT22;27609;51.002;5.354;2023-04-02T02:57:06;7.70;99.90
41922;DHT22;27609;51.002;5.354;2023-04-02T02:59:34;7.80;99.90
41922;DHT22;27609;51.002;5.354;2023-04-02T03:02:01;7.80;99.90
41922;DHT22;27609;51.002;5.354;2023-04-02T03:04:28;7.70;99.90
41922;DHT22;27609;51.002;5.354;2023-04-02T03:06:56;7.70;99.90
41922;DHT22;27609;51.002;5.354;2023-04-02T03:09:40;7.60;99.90
41922;DHT22;27609;51.002;5.354;2023-04-02T03:14:46;7.70;99.90
41922;DHT22;27609;51.002;5.354;2023-04-02T03:17:16;7.80;99.90
41922;DHT22;27609;51.002;5.354;2023-04-02T03:19:51;7.80;99.90
41922;DHT22;27609;51.002;5.354;2023-04-02T03:22:30;7.70;99.90
41922;DHT22;27609;51.002;5.354;2023-04-02T03:27:46;7.60;99.90
41922;DHT22;27609;51.002;5.354;2023-04-02T03:32:47;7.50;99.90
41922;DHT22;27609;51.002;5.354;2023-04-02T03:35:23;7.40;99.90
41922;DHT22;27609;51.002;5.354;2023-04-02T03:37:59;7.50;99.90
41922;DHT22;27609;51.002;5.354;2023-04-02T03:40:48;7.50;99.90
41922;DHT22;27609;51.002;5.354;2023-04-02T03:43:26;7.30;99.90
41922;DHT22;27609;51.002;5.354;2023-04-02T03:48:48;7.50;99.90
41922;DHT22;27609;51.002;5.354;2023-04-02T03:54:23;7.50;99.90
41922;DHT22;27609;51.002;5.354;2023-04-02T03:56:50;7.50;99.90
41922;DHT22;27609;51.002;5.354;2023-04-02T03:59:27;7.50;99.90
41922;DHT22;27609;51.002;5.354;2023-04-02T04:04:55;7.60;99.90
41922;DHT22;27609;51.002;5.354;2023-04-02T04:07:35;7.50;99.90
41922;DHT22;27609;51.002;5.354;2023-04-02T04:10:04;7.40;99.90
41922;DHT22;27609;51.002;5.354;2023-04-02T04:12:31;7.40;99.90
41922;DHT22;27609;51.002;5.354;2023-04-02T04:15:12;7.40;99.90
41922;DHT22;27609;51.002;5.354;2023-04-02T04:20:38;7.30;99.90
41922;DHT22;27609;51.002;5.354;2023-04-02T04:23:19;7.40;99.90
41922;DHT22;27609;51.002;5.354;2023-04-02T04:25:59;7.40;99.90
41922;DHT22;27609;51.002;5.354;2023-04-02T04:28:39;7.40;99.90
41922;DHT22;27609;51.002;5.354;2023-04-02T04:31:22;7.20;99.90
41922;DHT22;27609;51.002;5.354;2023-04-02T04:33:53;7.30;99.90
41922;DHT22;27609;51.002;5.354;2023-04-02T04:36:44;7.20;99.90
41922;DHT22;27609;51.002;5.354;2023-04-02T04:39:22;7.00;99.90
41922;DHT22;27609;51.002;5.354;2023-04-02T04:41:51;7.10;99.90
41922;DHT22;27609;51.002;5.354;2023-04-02T04:44:22;7.10;99.90
41922;DHT22;27609;51.002;5.354;2023-04-02T04:47:01;7.20;99.90
41922;DHT22;27609;51.002;5.354;2023-04-02T04:52:27;7.30;99.90
41922;DHT22;27609;51.002;5.354;2023-04-02T04:54:53;7.30;99.90
41922;DHT22;27609;51.002;5.354;2023-04-02T04:57:34;7.30;99.90
41922;DHT22;27609;51.002;5.354;2023-04-02T05:00:14;7.20;99.90
41922;DHT22;27609;51.002;5.354;2023-04-02T05:03:00;7.30;99.90
41922;DHT22;27609;51.002;5.354;2023-04-02T05:05:30;7.40;99.90
41922;DHT22;27609;51.002;5.354;2023-04-02T05:08:01;7.30;99.90
41922;DHT22;27609;51.002;5.354;2023-04-02T05:11:05;7.30;99.90
41922;DHT22;27609;51.002;5.354;2023-04-02T05:13:38;7.20;99.90
41922;DHT22;27609;51.002;5.354;2023-04-02T05:18:40;7.10;99.90
41922;DHT22;27609;51.002;5.354;2023-04-02T05:21:33;7.10;99.90
41922;DHT22;27609;51.002;5.354;2023-04-02T05:29:41;6.90;99.90
41922;DHT22;27609;51.002;5.354;2023-04-02T05:32:16;6.80;99.90
41922;DHT22;27609;51.002;5.354;2023-04-02T05:34:47;6.80;99.90
41922;DHT22;27609;51.002;5.354;2023-04-02T05:37:23;6.90;99.90
41922;DHT22;27609;51.002;5.354;2023-04-02T05:39:54;6.90;99.90
41922;DHT22;27609;51.002;5.354;2023-04-02T05:42:33;6.90;99.90
41922;DHT22;27609;51.002;5.354;2023-04-02T05:47:39;6.90;99.90
41922;DHT22;27609;51.002;5.354;2023-04-02T05:50:17;6.90;99.90
41922;DHT22;27609;51.002;5.354;2023-04-02T05:52:51;6.80;99.90
41922;DHT22;27609;51.002;5.354;2023-04-02T05:57:48;6.70;99.90
41922;DHT22;27609;51.002;5.354;2023-04-02T06:00:19;6.80;99.90
41922;DHT22;27609;51.002;5.354;2023-04-02T06:02:53;6.80;99.90
41922;DHT22;27609;51.002;5.354;2023-04-02T06:05:28;6.70;99.90
41922;DHT22;27609;51.002;5.354;2023-04-02T06:11:12;6.80;99.90
41922;DHT22;27609;51.002;5.354;2023-04-02T06:13:40;6.90;99.90
41922;DHT22;27609;51.002;5.354;2023-04-02T06:16:07;7.00;99.90
41922;DHT22;27609;51.002;5.354;2023-04-02T06:18:35;7.00;99.90
41922;DHT22;27609;51.002;5.354;2023-04-02T06:21:05;7.10;99.90
41922;DHT22;27609;51.002;5.354;2023-04-02T06:23:59;7.10;99.90
41922;DHT22;27609;51.002;5.354;2023-04-02T06:26:38;7.10;99.90
41922;DHT22;27609;51.002;5.354;2023-04-02T06:32:10;7.10;99.90
41922;DHT22;27609;51.002;5.354;2023-04-02T06:34:38;7.20;99.90
41922;DHT22;27609;51.002;5.354;2023-04-02T06:39:46;6.90;99.90
41922;DHT22;27609;51.002;5.354;2023-04-02T06:42:16;6.90;99.90
41922;DHT22;27609;51.002;5.354;2023-04-02T06:44:43;6.90;99.90
41922;DHT22;27609;51.002;5.354;2023-04-02T06:47:28;6.90;99.90
41922;DHT22;27609;51.002;5.354;2023-04-02T06:50:17;6.90;99.90
41922;DHT22;27609;51.002;5.354;2023-04-02T06:52:53;6.90;99.90
41922;DHT22;27609;51.002;5.354;2023-04-02T06:57:45;6.70;99.90
41922;DHT22;27609;51.002;5.354;2023-04-02T07:00:34;6.80;99.90
41922;DHT22;27609;51.002;5.354;2023-04-02T07:03:03;6.90;99.90
41922;DHT22;27609;51.002;5.354;2023-04-02T07:05:29;6.90;99.90
41922;DHT22;27609;51.002;5.354;2023-04-02T07:07:56;6.80;99.90
41922;DHT22;27609;51.002;5.354;2023-04-02T07:10:22;6.80;99.90
41922;DHT22;27609;51.002;5.354;2023-04-02T07:12:47;6.90;99.90
41922;DHT22;27609;51.002;5.354;2023-04-02T07:15:17;6.90;99.90
41922;DHT22;27609;51.002;5.354;2023-04-02T07:17:48;6.70;99.90
41922;DHT22;27609;51.002;5.354;2023-04-02T07:22:51;6.70;99.90
41922;DHT22;27609;51.002;5.354;2023-04-02T07:25:17;6.80;99.90
41922;DHT22;27609;51.002;5.354;2023-04-02T07:27:43;6.70;99.90
41922;DHT22;27609;51.002;5.354;2023-04-02T07:30:09;6.70;99.90
41922;DHT22;27609;51.002;5.354;2023-04-02T07:32:35;6.80;99.90
41922;DHT22;27609;51.002;5.354;2023-04-02T07:35:01;6.90;99.90
41922;DHT22;27609;51.002;5.354;2023-04-02T07:37:27;6.80;99.90
41922;DHT22;27609;51.002;5.354;2023-04-02T07:39:53;6.50;99.90
41922;DHT22;27609;51.002;5.354;2023-04-02T07:42:19;6.50;99.90
41922;DHT22;27609;51.002;5.354;2023-04-02T07:44:44;6.60;99.90
41922;DHT22;27609;51.002;5.354;2023-04-02T07:47:10;6.60;99.90
41922;DHT22;27609;51.002;5.354;2023-04-02T07:49:36;6.80;99.90
41922;DHT22;27609;51.002;5.354;2023-04-02T07:52:02;6.90;99.90
41922;DHT22;27609;51.002;5.354;2023-04-02T07:54:28;6.80;99.90
41922;DHT22;27609;51.002;5.354;2023-04-02T07:56:54;6.70;99.90
41922;DHT22;27609;51.002;5.354;2023-04-02T07:59:21;6.70;99.90
41922;DHT22;27609;51.002;5.354;2023-04-02T08:01:46;6.70;99.90
41922;DHT22;27609;51.002;5.354;2023-04-02T08:04:21;6.70;99.90
41922;DHT22;27609;51.002;5.354;2023-04-02T08:06:48;6.60;99.90
41922;DHT22;27609;51.002;5.354;2023-04-02T08:09:15;6.50;99.90
41922;DHT22;27609;51.002;5.354;2023-04-02T08:11:41;6.60;99.90
41922;DHT22;27609;51.002;5.354;2023-04-02T08:14:08;6.80;99.90
41922;DHT22;27609;51.002;5.354;2023-04-02T08:16:51;7.00;99.90
41922;DHT22;27609;51.002;5.354;2023-04-02T08:19:18;7.00;99.90
41922;DHT22;27609;51.002;5.354;2023-04-02T08:21:44;6.90;99.90
41922;DHT22;27609;51.002;5.354;2023-04-02T08:24:10;6.70;99.90
41922;DHT22;27609;51.002;5.354;2023-04-02T08:26:36;6.80;99.90
41922;DHT22;27609;51.002;5.354;2023-04-02T08:29:03;6.80;99.90
41922;DHT22;27609;51.002;5.354;2023-04-02T08:31:28;6.80;99.90
41922;DHT22;27609;51.002;5.354;2023-04-02T08:33:54;6.80;99.90
41922;DHT22;27609;51.002;5.354;2023-04-02T08:36:28;6.90;99.90
41922;DHT22;27609;51.002;5.354;2023-04-02T08:38:55;6.90;99.90
41922;DHT22;27609;51.002;5.354;2023-04-02T08:41:22;6.90;99.90
41922;DHT22;27609;51.002;5.354;2023-04-02T08:47:05;6.80;99.90
41922;DHT22;27609;51.002;5.354;2023-04-02T08:52:04;6.90;99.90
41922;DHT22;27609;51.002;5.354;2023-04-02T08:54:32;6.90;99.90
41922;DHT22;27609;51.002;5.354;2023-04-02T08:57:18;7.00;99.90
41922;DHT22;27609;51.002;5.354;2023-04-02T08:59:48;7.10;99.90
41922;DHT22;27609;51.002;5.354;2023-04-02T09:02:39;7.10;99.90
41922;DHT22;27609;51.002;5.354;2023-04-02T09:05:08;7.40;99.90
41922;DHT22;27609;51.002;5.354;2023-04-02T09:07:40;7.40;99.90
41922;DHT22;27609;51.002;5.354;2023-04-02T09:10:13;7.30;99.90
41922;DHT22;27609;51.002;5.354;2023-04-02T09:12:41;7.40;99.90
41922;DHT22;27609;51.002;5.354;2023-04-02T09:15:15;7.30;99.90
41922;DHT22;27609;51.002;5.354;2023-04-02T09:17:43;7.20;99.90
41922;DHT22;27609;51.002;5.354;2023-04-02T09:20:18;7.40;99.90
41922;DHT22;27609;51.002;5.354;2023-04-02T09:22:47;7.40;99.90
41922;DHT22;27609;51.002;5.354;2023-04-02T09:25:26;7.40;99.90
41922;DHT22;27609;51.002;5.354;2023-04-02T09:27:56;7.40;99.90
41922;DHT22;27609;51.002;5.354;2023-04-02T09:30:40;7.20;99.90
41922;DHT22;27609;51.002;5.354;2023-04-02T09:33:08;7.30;99.90
41922;DHT22;27609;51.002;5.354;2023-04-02T09:35:52;6.90;99.90
41922;DHT22;27609;51.002;5.354;2023-04-02T09:38:22;6.50;99.90
41922;DHT22;27609;51.002;5.354;2023-04-02T09:43:21;6.70;99.90
41922;DHT22;27609;51.002;5.354;2023-04-02T09:48:28;7.00;99.90
41922;DHT22;27609;51.002;5.354;2023-04-02T09:51:19;7.20;99.90
41922;DHT22;27609;51.002;5.354;2023-04-02T09:53:46;7.40;99.90
41922;DHT22;27609;51.002;5.354;2023-04-02T09:58:43;7.10;99.90
41922;DHT22;27609;51.002;5.354;2023-04-02T10:01:30;7.40;99.90
41922;DHT22;27609;51.002;5.354;2023-04-02T10:03:58;7.50;99.90
41922;DHT22;27609;51.002;5.354;2023-04-02T10:06:26;7.80;99.90
41922;DHT22;27609;51.002;5.354;2023-04-02T10:08:52;7.80;99.90
41922;DHT22;27609;51.002;5.354;2023-04-02T10:11:29;7.90;99.90
41922;DHT22;27609;51.002;5.354;2023-04-02T10:16:49;7.40;99.90
41922;DHT22;27609;51.002;5.354;2023-04-02T10:19:26;7.30;99.90
41922;DHT22;27609;51.002;5.354;2023-04-02T10:21:55;7.40;99.90
41922;DHT22;27609;51.002;5.354;2023-04-02T10:24:22;7.60;99.90
41922;DHT22;27609;51.002;5.354;2023-04-02T10:38:08;7.60;99.90
41922;DHT22;27609;51.002;5.354;2023-04-02T10:40:52;7.60;99.90
41922;DHT22;27609;51.002;5.354;2023-04-02T10:46:41;7.90;99.90
41922;DHT22;27609;51.002;5.354;2023-04-02T10:49:18;8.00;99.90
41922;DHT22;27609;51.002;5.354;2023-04-02T10:55:32;8.30;99.90
41922;DHT22;27609;51.002;5.354;2023-04-02T10:57:40;8.40;99.90
41922;DHT22;27609;51.002;5.354;2023-04-02T11:02:50;8.30;99.90
41922;DHT22;27609;51.002;5.354;2023-04-02T11:11:06;7.70;99.90
41922;DHT22;27609;51.002;5.354;2023-04-02T11:16:21;7.90;99.90
41922;DHT22;27609;51.002;5.354;2023-04-02T11:21:42;8.20;99.90
41922;DHT22;27609;51.002;5.354;2023-04-02T11:30:05;8.20;99.90
41922;DHT22;27609;51.002;5.354;2023-04-02T11:32:50;8.10;99.90
41922;DHT22;27609;51.002;5.354;2023-04-02T11:37:49;7.80;99.90
41922;DHT22;27609;51.002;5.354;2023-04-02T11:42:45;8.20;99.90
41922;DHT22;27609;51.002;5.354;2023-04-02T11:50:53;8.10;99.90
41922;DHT22;27609;51.002;5.354;2023-04-02T11:53:21;8.40;99.90
41922;DHT22;27609;51.002;5.354;2023-04-02T11:58:55;8.60;99.90
41922;DHT22;27609;51.002;5.354;2023-04-02T12:01:37;8.70;99.90
41922;DHT22;27609;51.002;5.354;2023-04-02T12:09:55;9.00;99.90
41922;DHT22;27609;51.002;5.354;2023-04-02T12:12:32;9.10;99.90
41922;DHT22;27609;51.002;5.354;2023-04-02T12:14:58;8.90;99.90
41922;DHT22;27609;51.002;5.354;2023-04-02T12:17:36;8.70;99.90
41922;DHT22;27609;51.002;5.354;2023-04-02T12:20:18;8.70;99.90
41922;DHT22;27609;51.002;5.354;2023-04-02T12:22:51;8.80;99.90
41922;DHT22;27609;51.002;5.354;2023-04-02T12:27:44;9.10;99.90
41922;DHT22;27609;51.002;5.354;2023-04-02T12:32:36;8.70;99.90
41922;DHT22;27609;51.002;5.354;2023-04-02T12:35:03;8.90;99.90
41922;DHT22;27609;51.002;5.354;2023-04-02T12:37:31;9.00;99.90
41922;DHT22;27609;51.002;5.354;2023-04-02T12:39:59;8.80;99.90
41922;DHT22;27609;51.002;5.354;2023-04-02T12:42:36;8.60;99.90
41922;DHT22;27609;51.002;5.354;2023-04-02T12:45:03;8.60;99.90
41922;DHT22;27609;51.002;5.354;2023-04-02T12:47:29;8.80;99.90
41922;DHT22;27609;51.002;5.354;2023-04-02T12:49:57;8.50;99.90
41922;DHT22;27609;51.002;5.354;2023-04-02T12:52:25;8.50;99.90
41922;DHT22;27609;51.002;5.354;2023-04-02T12:54:56;8.50;99.90
41922;DHT22;27609;51.002;5.354;2023-04-02T12:59:52;8.60;99.90
41922;DHT22;27609;51.002;5.354;2023-04-02T13:02:21;8.50;99.90
41922;DHT22;27609;51.002;5.354;2023-04-02T13:04:48;8.70;99.90
41922;DHT22;27609;51.002;5.354;2023-04-02T13:07:19;8.70;99.90
41922;DHT22;27609;51.002;5.354;2023-04-02T13:09:48;8.90;99.90
41922;DHT22;27609;51.002;5.354;2023-04-02T13:14:55;8.60;99.90
41922;DHT22;27609;51.002;5.354;2023-04-02T13:20:27;8.80;99.90
41922;DHT22;27609;51.002;5.354;2023-04-02T13:22:54;8.90;99.90
41922;DHT22;27609;51.002;5.354;2023-04-02T13:25:27;9.10;99.90
41922;DHT22;27609;51.002;5.354;2023-04-02T13:27:53;9.00;99.90
41922;DHT22;27609;51.002;5.354;2023-04-02T13:30:24;9.10;99.90
41922;DHT22;27609;51.002;5.354;2023-04-02T13:32:50;9.30;99.90
41922;DHT22;27609;51.002;5.354;2023-04-02T13:35:16;9.40;99.90
41922;DHT22;27609;51.002;5.354;2023-04-02T13:37:42;9.20;99.90
41922;DHT22;27609;51.002;5.354;2023-04-02T13:40:12;8.80;99.90
41922;DHT22;27609;51.002;5.354;2023-04-02T13:42:41;9.00;99.90
41922;DHT22;27609;51.002;5.354;2023-04-02T13:45:25;9.00;99.90
41922;DHT22;27609;51.002;5.354;2023-04-02T13:47:51;9.00;99.90
41922;DHT22;27609;51.002;5.354;2023-04-02T13:50:20;9.20;99.90
41922;DHT22;27609;51.002;5.354;2023-04-02T13:52:50;9.20;99.90
41922;DHT22;27609;51.002;5.354;2023-04-02T13:55:18;9.40;99.90
41922;DHT22;27609;51.002;5.354;2023-04-02T13:57:44;9.60;99.90
41922;DHT22;27609;51.002;5.354;2023-04-02T14:00:11;9.70;99.90
41922;DHT22;27609;51.002;5.354;2023-04-02T14:02:40;9.40;99.90
41922;DHT22;27609;51.002;5.354;2023-04-02T14:10:38;8.90;99.90
41922;DHT22;27609;51.002;5.354;2023-04-02T14:13:48;9.00;99.90
41922;DHT22;27609;51.002;5.354;2023-04-02T14:22:16;9.10;99.90
41922;DHT22;27609;51.002;5.354;2023-04-02T14:28:06;9.30;99.90
41922;DHT22;27609;51.002;5.354;2023-04-02T14:33:50;9.30;99.90
41922;DHT22;27609;51.002;5.354;2023-04-02T14:39:44;9.50;99.90
41922;DHT22;27609;51.002;5.354;2023-04-02T14:42:17;9.30;99.90
41922;DHT22;27609;51.002;5.354;2023-04-02T14:48:00;9.20;99.90
41922;DHT22;27609;51.002;5.354;2023-04-02T14:50:36;9.40;99.90
41922;DHT22;27609;51.002;5.354;2023-04-02T14:53:29;9.40;99.90
41922;DHT22;27609;51.002;5.354;2023-04-02T14:55:54;9.50;99.90
41922;DHT22;27609;51.002;5.354;2023-04-02T14:58:25;9.40;99.90
41922;DHT22;27609;51.002;5.354;2023-04-02T15:01:08;8.90;99.90
41922;DHT22;27609;51.002;5.354;2023-04-02T15:04:02;7.70;99.90
41922;DHT22;27609;51.002;5.354;2023-04-02T15:06:35;9.20;99.90
41922;DHT22;27609;51.002;5.354;2023-04-02T15:09:17;9.20;99.90
41922;DHT22;27609;51.002;5.354;2023-04-02T15:11:48;8.90;99.90
41922;DHT22;27609;51.002;5.354;2023-04-02T15:14:26;8.70;99.90
41922;DHT22;27609;51.002;5.354;2023-04-02T15:16:52;8.90;99.90
41922;DHT22;27609;51.002;5.354;2023-04-02T15:19:18;9.00;99.90
41922;DHT22;27609;51.002;5.354;2023-04-02T15:27:25;8.80;99.90
41922;DHT22;27609;51.002;5.354;2023-04-02T15:32:37;8.70;99.90
41922;DHT22;27609;51.002;5.354;2023-04-02T15:37:59;9.00;99.90
41922;DHT22;27609;51.002;5.354;2023-04-02T15:47:18;8.70;99.90
41922;DHT22;27609;51.002;5.354;2023-04-02T15:54:36;8.70;99.90
41922;DHT22;27609;51.002;5.354;2023-04-02T16:00:24;8.70;99.90
41922;DHT22;27609;51.002;5.354;2023-04-02T16:11:22;8.20;99.90
41922;DHT22;27609;51.002;5.354;2023-04-02T16:13:48;8.30;99.90
41922;DHT22;27609;51.002;5.354;2023-04-02T16:16:32;8.40;99.90
41922;DHT22;27609;51.002;5.354;2023-04-02T16:19:11;8.50;99.90
41922;DHT22;27609;51.002;5.354;2023-04-02T16:21:49;8.80;99.90
41922;DHT22;27609;51.002;5.354;2023-04-02T16:24:18;9.00;99.90
41922;DHT22;27609;51.002;5.354;2023-04-02T16:26:58;9.10;99.90
41922;DHT22;27609;51.002;5.354;2023-04-02T16:32:25;9.20;99.90
41922;DHT22;27609;51.002;5.354;2023-04-02T16:34:58;9.20;99.90
41922;DHT22;27609;51.002;5.354;2023-04-02T16:37:44;8.90;99.90
41922;DHT22;27609;51.002;5.354;2023-04-02T16:40:44;8.40;99.90
41922;DHT22;27609;51.002;5.354;2023-04-02T16:43:35;8.30;99.90
41922;DHT22;27609;51.002;5.354;2023-04-02T16:52:03;8.20;99.90
41922;DHT22;27609;51.002;5.354;2023-04-02T16:54:47;8.00;99.90
41922;DHT22;27609;51.002;5.354;2023-04-02T17:02:40;7.80;99.90
41922;DHT22;27609;51.002;5.354;2023-04-02T17:05:29;7.80;99.90
41922;DHT22;27609;51.002;5.354;2023-04-02T17:08:21;7.70;99.90
41922;DHT22;27609;51.002;5.354;2023-04-02T17:10:54;7.80;99.90
41922;DHT22;27609;51.002;5.354;2023-04-02T17:13:39;7.70;99.90
41922;DHT22;27609;51.002;5.354;2023-04-02T17:16:19;7.70;99.90
41922;DHT22;27609;51.002;5.354;2023-04-02T17:18:50;7.60;99.90
41922;DHT22;27609;51.002;5.354;2023-04-02T17:21:20;7.60;99.90
41922;DHT22;27609;51.002;5.354;2023-04-02T17:23:51;7.70;99.90
41922;DHT22;27609;51.002;5.354;2023-04-02T17:26:19;7.80;99.90
41922;DHT22;27609;51.002;5.354;2023-04-02T17:28:47;7.80;99.90
41922;DHT22;27609;51.002;5.354;2023-04-02T17:31:19;7.80;99.90
41922;DHT22;27609;51.002;5.354;2023-04-02T17:33:47;7.70;99.90
41922;DHT22;27609;51.002;5.354;2023-04-02T17:41:44;7.60;99.90
41922;DHT22;27609;51.002;5.354;2023-04-02T17:44:28;7.60;99.90
41922;DHT22;27609;51.002;5.354;2023-04-02T17:47:19;7.60;99.90
41922;DHT22;27609;51.002;5.354;2023-04-02T17:55:42;7.80;99.90
41922;DHT22;27609;51.002;5.354;2023-04-02T18:05:59;8.00;99.90
41922;DHT22;27609;51.002;5.354;2023-04-02T18:15:23;7.90;99.90
41922;DHT22;27609;51.002;5.354;2023-04-02T18:20:42;7.80;99.90
41922;DHT22;27609;51.002;5.354;2023-04-02T18:37:19;7.70;99.90
41922;DHT22;27609;51.002;5.354;2023-04-02T18:45:02;7.60;99.90
41922;DHT22;27609;51.002;5.354;2023-04-02T18:50:31;7.60;99.90
41922;DHT22;27609;51.002;5.354;2023-04-02T18:52:59;7.40;99.90
41922;DHT22;27609;51.002;5.354;2023-04-02T18:55:27;7.50;99.90
41922;DHT22;27609;51.002;5.354;2023-04-02T18:57:59;7.60;99.90
41922;DHT22;27609;51.002;5.354;2023-04-02T19:00:38;7.60;99.90
41922;DHT22;27609;51.002;5.354;2023-04-02T19:11:17;7.80;99.90
41922;DHT22;27609;51.002;5.354;2023-04-02T19:13:43;7.70;99.90
41922;DHT22;27609;51.002;5.354;2023-04-02T19:19:00;7.60;99.90
41922;DHT22;27609;51.002;5.354;2023-04-02T19:26:57;7.60;99.90
41922;DHT22;27609;51.002;5.354;2023-04-02T19:29:27;7.60;99.90
41922;DHT22;27609;51.002;5.354;2023-04-02T19:32:08;7.50;99.90
41922;DHT22;27609;51.002;5.354;2023-04-02T19:34:47;7.50;99.90
41922;DHT22;27609;51.002;5.354;2023-04-02T19:40:17;7.20;99.90
41922;DHT22;27609;51.002;5.354;2023-04-02T19:42:48;7.00;99.90
41922;DHT22;27609;51.002;5.354;2023-04-02T19:47:47;6.80;99.90
41922;DHT22;27609;51.002;5.354;2023-04-02T19:50:12;6.70;99.90
41922;DHT22;27609;51.002;5.354;2023-04-02T19:52:38;6.60;99.90
41922;DHT22;27609;51.002;5.354;2023-04-02T19:55:04;6.60;99.90
41922;DHT22;27609;51.002;5.354;2023-04-02T19:57:30;6.50;99.90
41922;DHT22;27609;51.002;5.354;2023-04-02T19:59:56;6.50;99.90
41922;DHT22;27609;51.002;5.354;2023-04-02T20:02:21;6.40;99.90
41922;DHT22;27609;51.002;5.354;2023-04-02T20:04:47;6.40;99.90
41922;DHT22;27609;51.002;5.354;2023-04-02T20:07:13;6.40;99.90
41922;DHT22;27609;51.002;5.354;2023-04-02T20:09:39;6.40;99.90
41922;DHT22;27609;51.002;5.354;2023-04-02T20:12:05;6.50;99.90
41922;DHT22;27609;51.002;5.354;2023-04-02T20:14:31;6.50;99.90
41922;DHT22;27609;51.002;5.354;2023-04-02T20:16:57;6.60;99.90
41922;DHT22;27609;51.002;5.354;2023-04-02T20:19:22;6.50;99.90
41922;DHT22;27609;51.002;5.354;2023-04-02T20:21:48;6.40;99.90
41922;DHT22;27609;51.002;5.354;2023-04-02T20:24:14;6.20;99.90
41922;DHT22;27609;51.002;5.354;2023-04-02T20:26:40;6.20;99.90
41922;DHT22;27609;51.002;5.354;2023-04-02T20:29:05;6.10;99.90
41922;DHT22;27609;51.002;5.354;2023-04-02T20:31:31;6.10;99.90
41922;DHT22;27609;51.002;5.354;2023-04-02T20:33:57;6.10;99.90
41922;DHT22;27609;51.002;5.354;2023-04-02T20:36:24;6.10;99.90
41922;DHT22;27609;51.002;5.354;2023-04-02T20:38:50;5.90;99.90
41922;DHT22;27609;51.002;5.354;2023-04-02T20:41:17;5.90;99.90
41922;DHT22;27609;51.002;5.354;2023-04-02T20:43:43;5.80;99.90
41922;DHT22;27609;51.002;5.354;2023-04-02T20:46:10;5.80;99.90
41922;DHT22;27609;51.002;5.354;2023-04-02T20:48:37;5.80;99.90
41922;DHT22;27609;51.002;5.354;2023-04-02T20:51:04;5.60;99.90
41922;DHT22;27609;51.002;5.354;2023-04-02T20:53:32;5.60;99.90
41922;DHT22;27609;51.002;5.354;2023-04-02T20:56:06;5.60;99.90
41922;DHT22;27609;51.002;5.354;2023-04-02T20:58:34;5.50;99.90
41922;DHT22;27609;51.002;5.354;2023-04-02T21:03:43;5.40;99.90
41922;DHT22;27609;51.002;5.354;2023-04-02T21:06:14;5.40;99.90
41922;DHT22;27609;51.002;5.354;2023-04-02T21:08:41;5.30;99.90
41922;DHT22;27609;51.002;5.354;2023-04-02T21:11:07;5.30;99.90
41922;DHT22;27609;51.002;5.354;2023-04-02T21:13:34;5.20;99.90
41922;DHT22;27609;51.002;5.354;2023-04-02T21:16:01;5.20;99.90
41922;DHT22;27609;51.002;5.354;2023-04-02T21:18:27;5.10;99.90
41922;DHT22;27609;51.002;5.354;2023-04-02T21:21:00;5.20;99.90
41922;DHT22;27609;51.002;5.354;2023-04-02T21:23:26;5.00;99.90
41922;DHT22;27609;51.002;5.354;2023-04-02T21:25:57;5.00;99.90
41922;DHT22;27609;51.002;5.354;2023-04-02T21:28:23;4.90;99.90
41922;DHT22;27609;51.002;5.354;2023-04-02T21:30:49;4.90;99.90
41922;DHT22;27609;51.002;5.354;2023-04-02T21:33:14;4.80;99.90